Time;durP1;ratioP1;P1;durP2;ratioP2;P2;SDS_P1;SDS_P2;PMS_P1;PMS_P2;Temp;Humidity;BMP_temperature;BMP_pressure;BME280_temperature;BME280_humidity;BME280_pressure;Samples;Min_cycle;Max_cycle;Signal;HPM_P1;HPM_P2
2023/06/16 00:00:43;;;;;;;7.70;5.50;;;;;;;14.89;85.82;101028.92;107762;1261;61362;-73
2023/06/16 00:03:15;;;;;;;8.70;5.30;;;;;;;14.88;85.61;101027.64;107455;1260;61171;-73
2023/06/16 00:05:46;;;;;;;7.30;5.40;;;;;;;14.87;85.48;101025.23;107725;1259;74692;-74
2023/06/16 00:08:14;;;;;;;7.10;5.60;;;;;;;14.86;85.33;101026.60;107641;1258;69806;-74
2023/06/16 00:10:41;;;;;;;7.80;5.40;;;;;;;14.85;85.16;101026.30;107727;1261;72786;-74
2023/06/16 00:13:09;;;;;;;6.60;5.20;;;;;;;14.85;84.75;101024.91;107073;1258;61164;-74
2023/06/16 00:15:36;;;;;;;8.20;5.20;;;;;;;14.84;84.64;101026.25;108379;1258;59324;-75
2023/06/16 00:18:03;;;;;;;6.90;5.40;;;;;;;14.83;84.38;101025.46;107410;1260;74745;-73
2023/06/16 00:20:32;;;;;;;6.60;5.20;;;;;;;14.82;84.08;101022.38;107765;1262;70599;-73
2023/06/16 00:22:59;;;;;;;6.50;4.70;;;;;;;14.82;83.91;101016.67;106841;1258;70697;-73
2023/06/16 00:25:26;;;;;;;7.20;5.40;;;;;;;14.81;83.77;101017.15;107808;1260;61260;-75
2023/06/16 00:27:54;;;;;;;7.80;5.30;;;;;;;14.82;83.58;101019.42;107206;1259;61296;-73
2023/06/16 00:30:21;;;;;;;7.90;5.30;;;;;;;14.81;83.41;101019.00;107910;1260;73658;-74
2023/06/16 00:32:48;;;;;;;6.80;5.10;;;;;;;14.83;83.10;101021.06;107970;1258;71197;-74
2023/06/16 00:35:15;;;;;;;7.70;5.00;;;;;;;14.82;83.08;101021.67;108009;1259;71486;-74
2023/06/16 00:37:42;;;;;;;7.40;4.90;;;;;;;14.80;82.73;101019.98;107812;1259;62243;-72
2023/06/16 00:40:09;;;;;;;6.20;4.80;;;;;;;14.76;82.98;101021.88;108225;1258;61308;-74
2023/06/16 00:42:36;;;;;;;8.50;4.80;;;;;;;14.72;83.03;101021.02;107585;1262;74755;-74
2023/06/16 00:45:03;;;;;;;7.40;5.30;;;;;;;14.67;82.99;101019.61;107948;1259;69547;-73
2023/06/16 00:47:31;;;;;;;8.60;5.20;;;;;;;14.63;83.07;101025.05;108014;1259;71474;-75
2023/06/16 00:49:58;;;;;;;8.40;5.10;;;;;;;14.60;82.85;101021.77;108209;1260;61898;-73
2023/06/16 00:52:30;;;;;;;7.10;5.20;;;;;;;14.57;82.99;101023.19;107965;1259;60429;-73
2023/06/16 00:54:57;;;;;;;7.10;5.10;;;;;;;14.54;82.86;101021.48;107773;1259;74669;-73
2023/06/16 00:57:24;;;;;;;7.60;5.10;;;;;;;14.51;82.74;101022.36;107726;1259;70516;-74
2023/06/16 00:59:52;;;;;;;6.60;5.00;;;;;;;14.47;82.85;101023.35;107811;1259;73929;-72
2023/06/16 01:02:18;;;;;;;8.20;5.10;;;;;;;14.43;83.09;101020.86;107881;1259;63136;-74
2023/06/16 01:04:48;;;;;;;9.10;5.10;;;;;;;14.38;83.09;101021.48;108004;1258;61119;-74
2023/06/16 01:07:18;;;;;;;6.90;5.10;;;;;;;14.34;83.60;101027.34;108350;1259;74070;-74
2023/06/16 01:09:57;;;;;;;7.40;5.40;;;;;;;14.29;83.64;101019.73;108461;1259;69906;-72
2023/06/16 01:12:30;;;;;;;7.40;5.10;;;;;;;14.26;83.79;101018.69;108421;1259;399128;-73
2023/06/16 01:15:09;;;;;;;7.60;5.20;;;;;;;14.24;83.71;101014.40;108029;1259;63779;-74
2023/06/16 01:17:43;;;;;;;7.30;5.20;;;;;;;14.23;83.87;101016.73;108370;1258;59336;-72
2023/06/16 01:20:17;;;;;;;6.30;4.90;;;;;;;14.22;83.90;101012.05;107722;1262;75214;-72
2023/06/16 01:22:50;;;;;;;7.40;5.50;;;;;;;14.22;84.12;101014.41;108391;1259;71433;-73
2023/06/16 01:25:22;;;;;;;7.10;5.50;;;;;;;14.24;83.97;101017.52;108287;1259;72068;-72
2023/06/16 01:27:53;;;;;;;7.10;5.00;;;;;;;14.27;83.93;101019.77;107887;1258;61991;-73
2023/06/16 01:30:22;;;;;;;7.80;5.50;;;;;;;14.32;83.86;101018.66;107909;1259;63597;-72
2023/06/16 01:32:53;;;;;;;6.00;5.10;;;;;;;14.37;83.89;101022.02;108012;1259;74713;-72
2023/06/16 01:35:21;;;;;;;8.00;5.30;;;;;;;14.39;83.85;101015.33;107924;1260;69614;-72
2023/06/16 01:37:53;;;;;;;8.20;5.60;;;;;;;14.41;83.74;101022.73;107770;1259;71565;-73
2023/06/16 01:40:21;;;;;;;10.20;5.40;;;;;;;14.43;83.56;101023.36;107363;1260;61519;-71
2023/06/16 01:42:48;;;;;;;6.60;5.20;;;;;;;14.43;83.43;101023.49;108543;1259;61361;-73
2023/06/16 01:45:16;;;;;;;6.80;5.30;;;;;;;14.42;83.38;101020.03;107912;1260;74923;-74
2023/06/16 01:47:44;;;;;;;8.80;5.50;;;;;;;14.40;83.56;101011.60;108226;1258;71078;-73
2023/06/16 01:50:12;;;;;;;6.90;5.50;;;;;;;14.37;83.36;101013.40;107950;1259;71514;-73
2023/06/16 01:52:39;;;;;;;7.40;5.40;;;;;;;14.35;83.44;101008.74;107898;1258;61773;-73
2023/06/16 01:55:06;;;;;;;7.70;5.30;;;;;;;14.31;83.39;101008.02;107973;1259;61180;-73
2023/06/16 01:57:34;;;;;;;7.00;5.40;;;;;;;14.27;83.43;101004.70;107395;1260;73527;-73
2023/06/16 02:00:10;;;;;;;7.20;5.50;;;;;;;14.23;83.46;101005.90;108091;1259;70067;-73
2023/06/16 02:02:40;;;;;;;8.20;5.50;;;;;;;14.20;83.44;101004.45;108018;1259;70728;-72
2023/06/16 02:05:10;;;;;;;7.30;5.70;;;;;;;14.18;83.41;101005.14;107976;1259;61179;-75
2023/06/16 02:07:41;;;;;;;8.20;5.50;;;;;;;14.15;83.66;101002.08;107632;1258;61159;-73
2023/06/16 02:10:09;;;;;;;8.40;6.20;;;;;;;14.13;83.86;101002.60;107950;1259;74771;-75
2023/06/16 02:12:36;;;;;;;9.90;6.20;;;;;;;14.07;84.21;101000.05;108107;1259;69868;-74
2023/06/16 02:15:04;;;;;;;9.20;6.20;;;;;;;14.04;84.59;101001.16;108033;1259;72607;-73
2023/06/16 02:17:31;;;;;;;9.40;6.50;;;;;;;14.01;84.87;101004.33;107621;1258;61279;-73
2023/06/16 02:19:58;;;;;;;9.10;6.30;;;;;;;14.00;85.32;101004.73;108189;1258;59093;-73
2023/06/16 02:22:25;;;;;;;9.30;6.70;;;;;;;13.97;85.37;101007.66;107888;1259;74958;-73
2023/06/16 02:24:53;;;;;;;7.30;6.40;;;;;;;13.97;85.50;101007.94;108146;1259;69842;-73
2023/06/16 02:27:19;;;;;;;7.50;6.40;;;;;;;13.97;85.68;101010.57;108025;1260;71533;-74
2023/06/16 02:29:47;;;;;;;9.90;6.70;;;;;;;13.98;86.18;101008.28;107925;1260;61263;-74
2023/06/16 02:32:13;;;;;;;10.00;6.70;;;;;;;13.98;86.28;101013.08;108140;1259;59879;-74
2023/06/16 02:34:43;;;;;;;9.90;7.00;;;;;;;13.98;86.53;101015.88;107972;1259;74683;-73
2023/06/16 02:37:11;;;;;;;10.60;6.90;;;;;;;14.00;86.61;101014.28;107632;1259;69641;-72
2023/06/16 02:39:39;;;;;;;9.30;6.90;;;;;;;14.01;86.53;101014.66;108162;1262;73115;-73
2023/06/16 02:42:08;;;;;;;8.60;6.40;;;;;;;14.02;86.47;101016.86;107781;1260;60788;-75
2023/06/16 02:44:34;;;;;;;9.80;6.50;;;;;;;14.02;86.30;101015.06;107987;1259;60806;-73
2023/06/16 02:47:01;;;;;;;10.00;6.60;;;;;;;14.04;86.24;101017.63;108105;1259;73531;-73
2023/06/16 02:49:28;;;;;;;11.30;6.60;;;;;;;14.07;86.34;101013.95;108080;1258;71429;-73
2023/06/16 02:51:55;;;;;;;9.10;6.80;;;;;;;14.08;86.15;101014.83;108146;1258;71745;-72
2023/06/16 02:54:22;;;;;;;9.60;6.60;;;;;;;14.10;85.99;101016.94;107914;1258;60795;-74
2023/06/16 02:56:49;;;;;;;9.10;6.50;;;;;;;14.12;85.85;101020.25;108038;1262;59621;-73
2023/06/16 02:59:16;;;;;;;10.40;6.20;;;;;;;14.15;85.67;101017.27;108154;1259;73597;-74
2023/06/16 03:01:43;;;;;;;8.70;6.30;;;;;;;14.18;85.30;101012.41;107757;1260;69925;-73
2023/06/16 03:04:10;;;;;;;9.20;6.30;;;;;;;14.21;85.20;101012.70;108277;1260;72671;-73
2023/06/16 03:06:37;;;;;;;7.40;6.40;;;;;;;14.25;84.99;101009.50;107852;1258;62486;-73
2023/06/16 03:09:05;;;;;;;8.10;6.30;;;;;;;14.30;84.77;101011.05;108268;1259;61262;-75
2023/06/16 03:11:32;;;;;;;8.00;6.00;;;;;;;14.34;84.51;101009.61;108318;1260;74835;-75
2023/06/16 03:13:59;;;;;;;9.40;6.60;;;;;;;14.37;84.57;101010.30;108036;1260;71234;-74
2023/06/16 03:16:27;;;;;;;8.80;6.40;;;;;;;14.39;84.31;101011.00;108150;1259;72180;-73
2023/06/16 03:18:54;;;;;;;9.70;6.60;;;;;;;14.41;84.29;101014.56;107408;1259;62022;-74
2023/06/16 03:21:22;;;;;;;11.10;6.00;;;;;;;14.42;84.15;101017.40;108305;1258;60430;-74
2023/06/16 03:23:50;;;;;;;9.50;6.30;;;;;;;14.45;84.01;101017.78;107773;1259;73534;-74
2023/06/16 03:26:18;;;;;;;13.20;6.80;;;;;;;14.47;84.03;101018.71;108303;1258;71255;-74
2023/06/16 03:28:45;;;;;;;9.90;6.20;;;;;;;14.52;83.90;101019.77;107773;1259;72748;-74
2023/06/16 03:31:12;;;;;;;9.10;6.30;;;;;;;14.55;83.69;101018.27;107925;1259;60407;-73
2023/06/16 03:33:39;;;;;;;10.00;6.50;;;;;;;14.59;83.58;101016.38;108008;1266;59384;-73
2023/06/16 03:36:06;;;;;;;8.60;6.30;;;;;;;14.61;83.33;101015.56;107899;1260;74699;-74
2023/06/16 03:38:34;;;;;;;9.10;6.10;;;;;;;14.62;83.22;101016.70;108126;1260;70345;-74
2023/06/16 03:41:01;;;;;;;8.50;6.00;;;;;;;14.63;83.15;101016.61;108064;1258;72482;-73
2023/06/16 03:43:28;;;;;;;8.40;6.20;;;;;;;14.63;82.94;101018.91;107519;1260;61393;-74
2023/06/16 03:45:55;;;;;;;9.00;6.30;;;;;;;14.66;83.01;101020.29;108102;1258;60384;-74
2023/06/16 03:48:22;;;;;;;9.90;6.40;;;;;;;14.70;82.71;101014.52;107837;1259;73815;-75
2023/06/16 03:50:52;;;;;;;9.40;6.00;;;;;;;14.73;82.58;101016.23;108511;1259;69996;-74
2023/06/16 03:53:20;;;;;;;8.60;6.30;;;;;;;14.77;82.36;101020.98;107862;1258;72050;-73
2023/06/16 03:55:47;;;;;;;8.80;6.50;;;;;;;14.80;82.29;101018.79;108429;1260;60752;-74
2023/06/16 03:58:15;;;;;;;9.60;6.60;;;;;;;14.81;82.00;101023.64;108091;1259;61238;-74
2023/06/16 04:00:43;;;;;;;8.90;6.20;;;;;;;14.83;82.14;101025.77;107661;1265;72574;-73
2023/06/16 04:03:10;;;;;;;11.60;6.30;;;;;;;14.88;81.92;101025.83;107778;1259;70371;-74
2023/06/16 04:05:38;;;;;;;9.60;6.20;;;;;;;14.94;81.76;101025.88;107896;1262;71447;-74
2023/06/16 04:08:05;;;;;;;11.20;6.20;;;;;;;14.97;81.62;101027.58;108074;1259;60941;-74
2023/06/16 04:10:32;;;;;;;9.40;6.20;;;;;;;14.98;81.35;101026.63;107877;1260;61695;-73
2023/06/16 04:12:59;;;;;;;11.00;6.30;;;;;;;14.97;81.21;101027.90;108374;1260;74068;-73
2023/06/16 04:15:26;;;;;;;10.20;5.80;;;;;;;15.00;81.18;101024.59;108737;1260;69675;-74
2023/06/16 04:17:53;;;;;;;11.20;6.30;;;;;;;15.03;80.86;101022.63;107386;1264;71839;-73
2023/06/16 04:20:20;;;;;;;11.70;6.20;;;;;;;15.06;80.74;101020.02;107676;1260;60472;-73
2023/06/16 04:22:48;;;;;;;10.50;6.00;;;;;;;15.06;80.64;101021.41;108380;1259;59004;-73
2023/06/16 04:25:17;;;;;;;10.30;5.90;;;;;;;15.04;80.45;101021.56;107893;1258;75083;-73
2023/06/16 04:27:49;;;;;;;13.20;6.20;;;;;;;15.05;80.29;101026.42;107775;1259;70301;-73
2023/06/16 04:30:22;;;;;;;14.10;6.40;;;;;;;15.07;80.38;101027.23;108418;1259;75306;-73
2023/06/16 04:32:49;;;;;;;14.80;6.40;;;;;;;15.08;80.38;101027.52;108144;1259;61219;-73
2023/06/16 04:35:16;;;;;;;13.70;6.60;;;;;;;15.11;80.42;101026.05;108269;1259;61170;-74
2023/06/16 04:37:43;;;;;;;20.70;6.60;;;;;;;15.14;80.48;101026.29;107303;1260;74807;-71
2023/06/16 04:40:10;;;;;;;12.00;5.80;;;;;;;15.17;80.23;101026.74;107310;1260;71294;-71
2023/06/16 04:42:36;;;;;;;16.00;6.30;;;;;;;15.16;80.34;101025.14;107658;1260;71711;-71
2023/06/16 04:45:04;;;;;;;15.90;6.30;;;;;;;15.21;81.46;101029.86;107794;1260;61819;-71
2023/06/16 04:47:31;;;;;;;15.40;6.30;;;;;;;15.34;80.97;101030.17;108111;1259;60469;-73
2023/06/16 04:49:57;;;;;;;15.50;5.90;;;;;;;15.45;80.11;101032.81;107644;1260;59141;-73
2023/06/16 04:52:24;;;;;;;10.80;5.90;;;;;;;15.53;79.48;101035.55;108021;1260;70462;-69
2023/06/16 04:54:51;;;;;;;11.90;6.40;;;;;;;15.58;78.95;101034.43;107927;1260;71556;-71
2023/06/16 04:57:18;;;;;;;11.40;6.20;;;;;;;15.63;78.63;101030.55;108200;1259;61125;-72
2023/06/16 04:59:45;;;;;;;11.00;6.00;;;;;;;15.69;78.24;101026.03;107396;1259;61247;-71
2023/06/16 05:02:12;;;;;;;12.90;6.30;;;;;;;15.77;78.02;101026.27;108349;1260;74737;-71
2023/06/16 05:04:43;;;;;;;13.20;6.40;;;;;;;15.87;78.05;101024.90;107903;1260;69932;-71
2023/06/16 05:07:13;;;;;;;11.90;6.00;;;;;;;15.98;77.61;101025.66;107591;1259;73168;-70
2023/06/16 05:09:40;;;;;;;13.00;6.40;;;;;;;16.06;77.14;101025.96;107500;1260;61109;-70
2023/06/16 05:12:07;;;;;;;9.90;5.90;;;;;;;16.15;76.84;101034.05;107932;1259;59895;-71
2023/06/16 05:14:33;;;;;;;10.70;6.40;;;;;;;16.24;76.51;101039.25;107961;1260;72903;-69
2023/06/16 05:17:00;;;;;;;8.90;5.90;;;;;;;16.28;75.95;101042.19;108403;1263;69715;-71
2023/06/16 05:19:29;;;;;;;12.90;5.90;;;;;;;16.32;75.84;101039.92;107583;1260;72681;-70
2023/06/16 05:21:56;;;;;;;12.40;6.90;;;;;;;16.35;75.63;101034.86;107308;1259;61144;-72
2023/06/16 05:24:23;;;;;;;12.20;6.20;;;;;;;16.35;75.16;101030.70;108174;1260;61193;-72
2023/06/16 05:26:51;;;;;;;18.30;7.00;;;;;;;16.34;75.37;101027.28;107901;1258;74301;-74
2023/06/16 05:29:17;;;;;;;15.50;7.00;;;;;;;16.42;75.78;101032.84;108062;1260;72524;-72
2023/06/16 05:31:44;;;;;;;17.40;7.10;;;;;;;16.52;75.41;101032.55;107665;1259;72692;-72
2023/06/16 05:34:11;;;;;;;19.50;7.30;;;;;;;16.61;75.11;101033.21;108087;1260;62321;-72
2023/06/16 05:36:38;;;;;;;17.50;7.00;;;;;;;16.68;74.70;101034.52;108314;1260;60383;-72
2023/06/16 05:39:10;;;;;;;18.30;7.40;;;;;;;16.84;74.81;101035.98;107448;1262;73186;-72
2023/06/16 05:41:36;;;;;;;17.90;6.90;;;;;;;16.90;73.91;101037.80;108314;1260;69954;-71
2023/06/16 05:44:07;;;;;;;18.70;6.70;;;;;;;16.93;73.43;101042.41;107821;1260;71179;-71
2023/06/16 05:46:33;;;;;;;21.50;7.70;;;;;;;16.96;73.55;101039.52;107443;1260;60847;-71
2023/06/16 05:49:01;;;;;;;24.80;7.70;;;;;;;17.01;73.44;101036.09;108042;1258;59116;-71
2023/06/16 05:51:28;;;;;;;17.60;7.70;;;;;;;17.08;73.57;101033.52;107743;1260;74055;-70
2023/06/16 05:53:55;;;;;;;16.50;7.60;;;;;;;17.11;73.16;101035.86;107765;1260;69723;-71
2023/06/16 05:56:23;;;;;;;17.60;7.30;;;;;;;17.22;74.10;101035.25;108280;1262;71662;-71
2023/06/16 05:58:52;;;;;;;25.80;6.90;;;;;;;17.45;73.73;101039.28;108128;1262;61366;-72
2023/06/16 06:01:18;;;;;;;17.40;7.60;;;;;;;17.55;72.90;101039.20;108487;1260;61171;-73
2023/06/16 06:03:46;;;;;;;18.30;7.20;;;;;;;17.55;71.77;101037.83;108612;1260;75236;-73
2023/06/16 06:06:15;;;;;;;16.30;7.60;;;;;;;17.52;71.35;101033.63;108498;1257;69941;-71
2023/06/16 06:08:41;;;;;;;14.40;7.40;;;;;;;17.54;71.81;101031.94;108236;1257;72748;-71
2023/06/16 06:11:09;;;;;;;13.70;7.30;;;;;;;17.60;71.48;101028.48;108249;1257;62001;-72
2023/06/16 06:13:36;;;;;;;13.60;8.20;;;;;;;17.64;70.96;101027.14;108084;1261;60434;-73
2023/06/16 06:16:04;;;;;;;11.00;7.50;;;;;;;17.65;70.30;101024.81;108347;1260;74678;-71
2023/06/16 06:18:34;;;;;;;11.30;7.30;;;;;;;17.69;70.52;101024.36;108373;1260;69737;-71
2023/06/16 06:21:01;;;;;;;34.50;25.40;;;;;;;17.74;69.93;101032.34;108238;1263;72752;-72
2023/06/16 06:23:28;;;;;;;11.30;9.20;;;;;;;17.82;70.00;101037.67;108060;1258;63398;-71
2023/06/16 06:25:57;;;;;;;125.40;102.50;;;;;;;17.95;69.86;101044.97;108434;1257;60230;-73
2023/06/16 06:28:24;;;;;;;18.10;14.30;;;;;;;18.14;69.65;101047.75;108267;1262;73542;-71
2023/06/16 06:30:53;;;;;;;22.40;16.50;;;;;;;18.32;69.23;101043.99;108598;1260;70437;-72
2023/06/16 06:33:20;;;;;;;10.40;7.60;;;;;;;18.49;68.54;101041.55;108157;1260;72600;-72
2023/06/16 06:35:50;;;;;;;10.70;7.60;;;;;;;18.58;67.65;101038.83;108172;1258;60817;-73
2023/06/16 06:38:18;;;;;;;20.20;13.90;;;;;;;18.64;67.06;101032.63;108315;1260;59729;-72
2023/06/16 06:40:47;;;;;;;11.30;7.40;;;;;;;18.69;66.94;101037.25;108380;1258;73821;-72
2023/06/16 06:43:14;;;;;;;9.60;7.70;;;;;;;18.68;66.94;101038.66;108174;1260;69765;-72
2023/06/16 06:45:41;;;;;;;9.80;7.50;;;;;;;18.69;67.13;101036.35;108447;1258;71790;-73
2023/06/16 06:48:08;;;;;;;10.70;7.10;;;;;;;18.73;67.13;101039.66;108319;1259;60825;-73
2023/06/16 06:50:34;;;;;;;9.80;7.50;;;;;;;18.83;67.03;101038.89;108433;1260;61456;-71
2023/06/16 06:53:01;;;;;;;9.80;7.60;;;;;;;18.90;66.80;101032.63;108320;1258;73442;-72
2023/06/16 06:55:32;;;;;;;10.90;7.60;;;;;;;18.95;66.48;101029.77;108414;1260;69657;-72
2023/06/16 06:58:02;;;;;;;9.10;7.30;;;;;;;18.91;66.34;101026.16;108572;1259;72972;-72
2023/06/16 07:00:29;;;;;;;9.10;7.80;;;;;;;18.84;66.38;101026.93;108284;1262;62091;-71
2023/06/16 07:02:56;;;;;;;10.30;7.20;;;;;;;18.81;67.00;101023.41;108181;1258;61257;-73
2023/06/16 07:05:23;;;;;;;10.60;7.00;;;;;;;18.83;66.74;101022.27;108190;1257;73462;-71
2023/06/16 07:07:53;;;;;;;11.80;6.90;;;;;;;18.86;66.56;101025.66;107688;1261;69982;-71
2023/06/16 07:10:19;;;;;;;9.50;7.10;;;;;;;18.84;66.33;101020.80;108343;1260;73205;-72
2023/06/16 07:12:50;;;;;;;9.60;7.10;;;;;;;18.81;66.65;101018.26;108288;1259;62179;-71
2023/06/16 07:15:16;;;;;;;8.90;6.40;;;;;;;18.80;67.25;101015.36;108611;1259;61166;-72
2023/06/16 07:17:46;;;;;;;9.90;6.70;;;;;;;18.78;67.46;101016.30;108641;1262;75336;-72
2023/06/16 07:20:13;;;;;;;9.80;6.90;;;;;;;18.77;67.19;101013.04;108335;1260;71203;-72
2023/06/16 07:22:45;;;;;;;8.00;6.40;;;;;;;18.74;67.47;101018.88;108648;1262;73890;-72
2023/06/16 07:25:12;;;;;;;8.40;6.70;;;;;;;18.65;67.81;101016.98;108440;1260;60208;-72
2023/06/16 07:27:39;;;;;;;10.10;6.80;;;;;;;18.64;67.90;101010.23;108264;1260;61106;-72
2023/06/16 07:30:09;;;;;;;11.60;7.60;;;;;;;18.68;67.75;101011.23;108247;1259;74639;-72
2023/06/16 07:32:36;;;;;;;10.80;6.40;;;;;;;18.74;67.28;101009.05;108047;1259;70560;-73
2023/06/16 07:35:03;;;;;;;12.40;9.90;;;;;;;18.81;66.97;101012.08;108233;1258;72751;-72
2023/06/16 07:37:37;;;;;;;28.40;22.40;;;;;;;18.91;66.57;101015.98;108659;1257;60437;-73
2023/06/16 07:40:07;;;;;;;27.50;18.90;;;;;;;19.00;66.04;101017.42;108063;1260;59321;-71
2023/06/16 07:42:37;;;;;;;15.40;10.20;;;;;;;19.06;65.65;101019.89;108267;1260;74729;-72
2023/06/16 07:45:05;;;;;;;14.70;9.60;;;;;;;19.10;64.57;101015.58;108232;1259;69990;-71
2023/06/16 07:47:31;;;;;;;9.50;5.60;;;;;;;19.06;63.40;101014.22;108429;1260;72806;-72
2023/06/16 07:49:58;;;;;;;8.40;6.10;;;;;;;19.06;63.52;101014.71;108509;1260;60331;-72
2023/06/16 07:52:25;;;;;;;32.80;24.70;;;;;;;19.08;63.48;101011.44;108549;1262;59164;-72
2023/06/16 07:54:52;;;;;;;8.80;6.20;;;;;;;19.11;62.44;101009.85;108360;1260;74786;-71
2023/06/16 07:57:19;;;;;;;8.40;5.40;;;;;;;19.17;61.65;101008.73;108532;1258;72051;-72
2023/06/16 07:59:46;;;;;;;9.10;6.00;;;;;;;19.27;61.70;101007.41;108204;1259;71654;-71
2023/06/16 08:02:12;;;;;;;11.20;8.90;;;;;;;19.44;62.27;101011.30;108594;1265;61253;-72
2023/06/16 08:04:39;;;;;;;10.40;7.80;;;;;;;19.69;61.90;101006.92;108108;1261;61754;-72
2023/06/16 08:07:06;;;;;;;8.80;6.20;;;;;;;19.85;60.94;101009.05;108507;1259;74882;-72
2023/06/16 08:09:33;;;;;;;8.50;6.30;;;;;;;20.06;60.81;101005.02;108494;1261;72492;-74
2023/06/16 08:12:00;;;;;;;9.30;5.90;;;;;;;20.21;60.17;101005.21;108325;1260;72998;-72
2023/06/16 08:14:27;;;;;;;8.50;5.70;;;;;;;20.30;60.18;101004.04;108039;1260;60859;-72
2023/06/16 08:16:54;;;;;;;8.00;5.90;;;;;;;20.32;58.51;101005.27;108494;1261;60094;-73
2023/06/16 08:19:20;;;;;;;12.30;7.90;;;;;;;20.28;58.68;100998.13;108490;1258;73467;-72
2023/06/16 08:21:47;;;;;;;13.90;11.40;;;;;;;20.34;58.22;100999.69;108256;1259;70953;-73
2023/06/16 08:24:15;;;;;;;9.60;7.40;;;;;;;20.37;57.88;100996.83;108597;1259;72438;-73
2023/06/16 08:26:44;;;;;;;8.20;4.80;;;;;;;20.48;57.77;100995.20;108406;1257;60691;-72
2023/06/16 08:29:12;;;;;;;8.90;6.10;;;;;;;20.63;58.04;100998.00;108432;1260;60346;-71
2023/06/16 08:31:39;;;;;;;22.80;18.20;;;;;;;20.80;57.77;101001.42;108357;1262;73572;-70
2023/06/16 08:34:07;;;;;;;7.60;5.00;;;;;;;20.97;57.37;100998.56;108304;1260;70028;-72
2023/06/16 08:36:34;;;;;;;10.10;5.20;;;;;;;21.13;56.79;100996.10;108353;1263;71645;-73
2023/06/16 08:39:00;;;;;;;5.10;4.10;;;;;;;21.23;56.47;100987.06;108116;1259;60464;-72
2023/06/16 08:41:28;;;;;;;10.10;4.50;;;;;;;21.33;56.16;100985.05;107723;1260;61130;-73
2023/06/16 08:43:58;;;;;;;8.70;5.00;;;;;;;21.36;56.48;100982.14;108612;1261;74729;-72
2023/06/16 08:46:25;;;;;;;8.00;5.80;;;;;;;21.42;56.87;100981.27;108595;1265;71343;-72
2023/06/16 08:48:52;;;;;;;6.90;4.60;;;;;;;21.59;56.70;100978.41;108205;1261;71158;-74
2023/06/16 08:51:25;;;;;;;6.50;4.30;;;;;;;21.77;55.76;100980.03;108255;1261;61183;-75
2023/06/16 08:54:00;;;;;;;13.90;10.60;;;;;;;21.93;54.84;100981.39;108423;1259;59294;-73
2023/06/16 08:56:31;;;;;;;8.00;5.00;;;;;;;22.02;53.23;100980.27;108101;1261;73780;-73
2023/06/16 08:59:00;;;;;;;5.40;3.30;;;;;;;22.15;52.82;100981.70;108377;1261;71286;-74
2023/06/16 09:01:28;;;;;;;32.50;27.00;;;;;;;22.27;51.78;100978.52;108085;1260;71293;-72
2023/06/16 09:03:55;;;;;;;13.20;8.60;;;;;;;22.30;50.30;100979.66;108457;1257;61281;-75
2023/06/16 09:06:22;;;;;;;4.50;3.10;;;;;;;22.29;50.43;100976.41;107559;1261;59458;-73
2023/06/16 09:08:50;;;;;;;12.80;10.30;;;;;;;22.31;50.23;100975.56;108159;1259;76896;-71
2023/06/16 09:11:26;;;;;;;30.40;24.10;;;;;;;22.32;50.14;100969.86;108201;1260;70034;-73
2023/06/16 09:13:53;;;;;;;23.30;19.10;;;;;;;22.39;50.37;100969.20;108452;1260;72743;-73
2023/06/16 09:16:21;;;;;;;6.50;3.80;;;;;;;22.47;50.42;100971.38;107833;1260;59319;-74
2023/06/16 09:18:49;;;;;;;6.00;3.30;;;;;;;22.51;49.82;100970.40;108267;1260;59154;-74
2023/06/16 09:21:23;;;;;;;4.60;3.30;;;;;;;22.52;50.56;100968.11;108225;1259;75649;-73
2023/06/16 09:23:58;;;;;;;6.10;3.40;;;;;;;22.62;50.05;100976.30;108276;1260;71775;-73
2023/06/16 09:26:30;;;;;;;5.00;3.30;;;;;;;22.78;49.95;100974.91;108071;1261;71467;-72
2023/06/16 09:28:57;;;;;;;9.70;6.60;;;;;;;22.89;49.79;100978.79;108165;1259;61115;-72
2023/06/16 09:31:28;;;;;;;6.10;3.60;;;;;;;23.03;49.73;100971.46;108281;1260;60390;-72
2023/06/16 09:34:06;;;;;;;13.00;11.40;;;;;;;23.15;49.02;100971.14;107942;1261;74484;-72
2023/06/16 09:36:33;;;;;;;8.00;6.00;;;;;;;23.32;48.91;100963.70;108320;1260;71502;-73
2023/06/16 09:39:00;;;;;;;6.70;3.90;;;;;;;23.56;49.75;100963.05;108404;1257;71268;-74
2023/06/16 09:41:27;;;;;;;7.70;4.70;;;;;;;23.67;48.71;100971.05;108130;1260;61183;-73
2023/06/16 09:43:58;;;;;;;6.90;4.30;;;;;;;23.58;48.49;100967.45;108098;1257;60479;-73
2023/06/16 09:46:25;;;;;;;7.50;4.40;;;;;;;23.55;48.62;100965.75;108395;1259;73186;-73
2023/06/16 09:48:52;;;;;;;10.40;5.90;;;;;;;23.67;49.07;100963.38;108108;1261;70555;-73
2023/06/16 09:51:21;;;;;;;6.80;5.20;;;;;;;23.90;48.59;100957.70;108303;1261;71627;-74
2023/06/16 09:53:49;;;;;;;7.20;5.70;;;;;;;24.05;48.36;100954.91;107937;1260;60117;-73
2023/06/16 09:56:17;;;;;;;6.40;4.70;;;;;;;24.15;47.67;100954.23;108190;1260;60909;-73
2023/06/16 09:58:45;;;;;;;8.00;4.60;;;;;;;24.20;47.13;100950.09;108358;1260;73527;-75
2023/06/16 10:01:14;;;;;;;8.30;5.20;;;;;;;24.31;46.70;100945.35;108204;1257;70394;-75
2023/06/16 10:03:43;;;;;;;8.20;3.80;;;;;;;24.31;45.60;100941.71;108295;1257;71479;-73
2023/06/16 10:06:16;;;;;;;4.60;3.80;;;;;;;24.36;44.12;100951.99;108548;1257;59608;-71
2023/06/16 10:08:43;;;;;;;6.20;3.90;;;;;;;24.31;44.00;100946.44;108103;1258;59038;-71
2023/06/16 10:11:14;;;;;;;6.60;4.10;;;;;;;24.45;44.50;100943.70;107944;1260;73464;-72
2023/06/16 10:13:44;;;;;;;6.70;3.90;;;;;;;24.64;44.49;100943.69;108055;1261;71173;-72
2023/06/16 10:16:14;;;;;;;7.60;4.50;;;;;;;24.76;44.35;100938.76;108021;1257;71496;-71
2023/06/16 10:18:42;;;;;;;6.40;4.80;;;;;;;24.87;44.34;100936.04;108054;1267;60195;-70
2023/06/16 10:21:10;;;;;;;6.20;4.90;;;;;;;24.86;44.49;100936.14;108465;1260;60074;-71
2023/06/16 10:23:37;;;;;;;5.60;4.70;;;;;;;24.93;44.82;100934.38;107945;1257;73842;-71
2023/06/16 10:26:05;;;;;;;7.30;5.70;;;;;;;25.05;45.01;100928.30;108360;1261;71384;-71
2023/06/16 10:28:35;;;;;;;8.30;4.80;;;;;;;25.27;45.23;100923.06;107933;1257;71243;-71
2023/06/16 10:31:04;;;;;;;7.10;5.80;;;;;;;25.38;43.78;100928.04;108230;1257;61184;-71
2023/06/16 10:33:59;;;;;;;12.50;8.80;;;;;;;25.31;43.50;100925.64;108531;1257;61287;-71
2023/06/16 10:36:33;;;;;;;7.10;5.30;;;;;;;25.39;44.09;100922.34;108355;1260;74700;-72
2023/06/16 10:39:08;;;;;;;9.00;6.80;;;;;;;25.57;44.36;100918.84;108236;1257;71532;-70
2023/06/16 10:41:48;;;;;;;18.80;14.50;;;;;;;25.76;43.89;100914.94;108129;1263;72671;-70
2023/06/16 10:44:29;;;;;;;9.10;7.10;;;;;;;25.79;43.90;100917.29;108582;1260;59091;-71
2023/06/16 10:47:07;;;;;;;9.80;7.10;;;;;;;25.86;44.19;100917.66;108235;1257;60402;-71
2023/06/16 10:49:46;;;;;;;16.00;12.50;;;;;;;25.85;42.77;100910.42;107794;1258;73220;-71
2023/06/16 10:52:28;;;;;;;4.60;3.60;;;;;;;25.88;42.06;100908.40;107356;1260;70541;-71
2023/06/16 10:54:56;;;;;;;5.60;3.40;;;;;;;25.92;41.90;100908.21;108135;1259;71743;-72
2023/06/16 10:57:26;;;;;;;5.80;3.70;;;;;;;25.90;40.92;100912.02;108160;1258;60958;-72
2023/06/16 10:59:54;;;;;;;13.10;9.00;;;;;;;25.61;41.68;100909.39;107975;1259;61646;-70
2023/06/16 11:02:27;;;;;;;7.00;4.60;;;;;;;25.43;42.61;100910.49;108411;1257;73538;-72
2023/06/16 11:05:07;;;;;;;6.90;4.10;;;;;;;25.20;42.60;100911.86;107732;1259;71189;-72
2023/06/16 11:07:47;;;;;;;9.70;4.10;;;;;;;25.11;42.96;100906.44;108025;1257;71472;-72
2023/06/16 11:10:20;;;;;;;7.50;4.50;;;;;;;25.15;43.02;100902.38;107941;1260;61234;-70
2023/06/16 11:12:47;;;;;;;5.10;4.20;;;;;;;25.10;43.00;100902.89;108004;1258;61319;-73
2023/06/16 11:15:14;;;;;;;6.20;4.50;;;;;;;25.10;42.95;100902.46;108384;1260;73240;-71
2023/06/16 11:17:45;;;;;;;5.80;4.30;;;;;;;25.20;42.85;100904.52;107897;1260;71685;-71
2023/06/16 11:20:13;;;;;;;5.90;4.30;;;;;;;25.36;42.46;100899.02;108149;1259;72914;-72